createdAt,value
2018-02-09T00:00:34.788Z,997.09
2018-02-09T00:01:34.814Z,997.09
2018-02-09T00:02:34.839Z,997.07
2018-02-09T00:03:34.869Z,997.06
2018-02-09T00:04:34.891Z,997.08
2018-02-09T00:05:34.923Z,997.03
2018-02-09T00:06:34.943Z,997.03
2018-02-09T00:07:35.176Z,997.03
2018-02-09T00:08:34.999Z,997.08
2018-02-09T00:09:35.022Z,997.05
2018-02-09T00:10:35.049Z,997.05
2018-02-09T00:11:35.075Z,997.05
2018-02-09T00:12:35.104Z,997.05
2018-02-09T00:13:35.130Z,997.05
2018-02-09T00:14:35.164Z,997.07
2018-02-09T00:15:35.193Z,997.10
2018-02-09T00:16:35.211Z,997.07
2018-02-09T00:17:35.231Z,997.05
2018-02-09T00:18:35.260Z,997.04
2018-02-09T00:19:35.283Z,997.05
2018-02-09T00:20:35.310Z,997.04
2018-02-09T00:21:35.337Z,997.01
2018-02-09T00:22:35.365Z,997.03
2018-02-09T00:23:35.390Z,996.99
2018-02-09T00:24:35.457Z,997.00
2018-02-09T00:25:35.472Z,997.01
2018-02-09T00:26:35.483Z,997.01
2018-02-09T00:27:35.496Z,997.04
2018-02-09T00:28:35.522Z,997.02
2018-02-09T00:29:35.566Z,997.02
2018-02-09T00:30:35.570Z,996.93
2018-02-09T00:31:35.597Z,997.00
2018-02-09T00:32:35.631Z,997.01
2018-02-09T00:33:35.649Z,997.01
2018-02-09T00:34:35.675Z,996.99
2018-02-09T00:35:35.702Z,996.96
2018-02-09T00:36:35.725Z,996.97
2018-02-09T00:37:35.753Z,996.97
2018-02-09T00:38:35.778Z,996.97
2018-02-09T00:39:35.807Z,996.94
2018-02-09T00:40:35.833Z,996.92
2018-02-09T00:41:35.855Z,996.91
2018-02-09T00:42:35.882Z,996.96
2018-02-09T00:43:35.913Z,996.96
2018-02-09T00:44:35.934Z,996.95
2018-02-09T00:45:35.969Z,996.95
2018-02-09T00:46:35.986Z,996.95
2018-02-09T00:47:36.014Z,996.95
2018-02-09T00:48:36.039Z,996.93
2018-02-09T00:49:36.065Z,996.93
2018-02-09T00:50:36.154Z,996.92
2018-02-09T00:51:36.116Z,996.90
2018-02-09T00:52:36.144Z,996.91
2018-02-09T00:53:36.171Z,996.92
2018-02-09T00:54:36.195Z,996.89
2018-02-09T00:55:36.219Z,996.92
2018-02-09T00:56:36.248Z,996.90
2018-02-09T00:57:36.276Z,996.84
2018-02-09T00:58:36.300Z,996.89
2018-02-09T00:59:36.325Z,996.87
2018-02-09T01:00:36.356Z,996.88
2018-02-09T01:01:36.378Z,996.83
2018-02-09T01:02:36.420Z,996.88
2018-02-09T01:03:36.429Z,996.92
2018-02-09T01:04:36.456Z,996.87
2018-02-09T01:05:36.487Z,996.92
2018-02-09T01:06:36.509Z,996.90
2018-02-09T01:07:36.594Z,996.90
2018-02-09T01:08:36.562Z,996.87
2018-02-09T01:09:36.591Z,996.92
2018-02-09T01:10:36.616Z,996.88
2018-02-09T01:11:36.638Z,996.89
2018-02-09T01:12:36.670Z,996.86
2018-02-09T01:13:36.692Z,996.87
2018-02-09T01:14:36.716Z,996.90
2018-02-09T01:15:36.947Z,996.87
2018-02-09T01:16:36.770Z,996.87
2018-02-09T01:17:36.797Z,996.90
2018-02-09T01:18:36.824Z,996.90
2018-02-09T01:19:36.848Z,996.86
2018-02-09T01:20:36.878Z,996.85
2018-02-09T01:21:36.900Z,996.84
2018-02-09T01:22:36.926Z,996.87
2018-02-09T01:23:36.953Z,996.83
2018-02-09T01:24:36.987Z,996.83
2018-02-09T01:25:37.005Z,996.82
2018-02-09T01:26:37.031Z,996.83
2018-02-09T01:27:37.058Z,996.81
2018-02-09T01:28:37.089Z,996.78
2018-02-09T01:29:37.111Z,996.79
2018-02-09T01:30:37.138Z,996.77
2018-02-09T01:31:37.164Z,996.79
2018-02-09T01:32:37.193Z,996.79
2018-02-09T01:33:37.223Z,996.80
2018-02-09T01:34:37.243Z,996.79
2018-02-09T01:35:37.270Z,996.77
2018-02-09T01:36:37.369Z,996.74
2018-02-09T01:37:37.322Z,996.71
2018-02-09T01:38:37.350Z,996.73
2018-02-09T01:39:37.376Z,996.77
2018-02-09T01:40:37.402Z,996.73
2018-02-09T01:41:37.427Z,996.72
2018-02-09T01:42:37.456Z,996.73
2018-02-09T01:43:37.482Z,996.68
2018-02-09T01:44:37.511Z,996.69
2018-02-09T01:45:37.533Z,996.64
2018-02-09T01:46:37.561Z,996.67
2018-02-09T01:47:37.587Z,996.62
2018-02-09T01:48:37.613Z,996.61
2018-02-09T01:49:37.641Z,996.65
2018-02-09T01:50:37.669Z,996.62
2018-02-09T01:51:37.696Z,996.60
2018-02-09T01:52:37.728Z,996.60
2018-02-09T01:53:37.852Z,996.58
2018-02-09T01:54:37.772Z,996.54
2018-02-09T01:55:37.803Z,996.54
2018-02-09T01:56:37.827Z,996.55
2018-02-09T01:57:37.853Z,996.57
2018-02-09T01:58:37.879Z,996.53
2018-02-09T01:59:37.907Z,996.52
2018-02-09T02:00:37.933Z,996.53
2018-02-09T02:01:37.958Z,996.55
2018-02-09T02:02:37.985Z,996.54
2018-02-09T02:03:38.014Z,996.52
2018-02-09T02:04:38.053Z,996.50
2018-02-09T02:05:38.066Z,996.49
2018-02-09T02:06:38.093Z,996.48
2018-02-09T02:07:38.117Z,996.48
2018-02-09T02:08:38.147Z,996.43
2018-02-09T02:09:38.174Z,996.46
2018-02-09T02:10:38.263Z,996.46
2018-02-09T02:11:38.224Z,996.47
2018-02-09T02:12:38.263Z,996.46
2018-02-09T02:13:38.277Z,996.43
2018-02-09T02:14:38.312Z,996.44
2018-02-09T02:15:38.335Z,996.45
2018-02-09T02:16:38.358Z,996.45
2018-02-09T02:17:38.384Z,996.46
2018-02-09T02:18:38.411Z,996.43
2018-02-09T02:19:38.438Z,996.45
2018-02-09T02:20:38.465Z,996.42
2018-02-09T02:21:38.493Z,996.39
2018-02-09T02:22:38.585Z,996.37
2018-02-09T02:23:38.544Z,996.36
2018-02-09T02:24:38.571Z,996.38
2018-02-09T02:25:38.599Z,996.38
2018-02-09T02:26:38.627Z,996.40
2018-02-09T02:27:38.656Z,996.42
2018-02-09T02:28:38.680Z,996.35
2018-02-09T02:29:38.707Z,996.37
2018-02-09T02:30:38.731Z,996.36
2018-02-09T02:31:38.757Z,996.35
2018-02-09T02:32:38.785Z,996.36
2018-02-09T02:33:38.811Z,996.33
2018-02-09T02:34:38.837Z,996.30
2018-02-09T02:35:38.867Z,996.28
2018-02-09T02:36:38.891Z,996.30
2018-02-09T02:37:38.919Z,996.28
2018-02-09T02:38:38.996Z,996.28
2018-02-09T02:39:39.047Z,996.27
2018-02-09T02:40:38.997Z,996.28
2018-02-09T02:41:39.022Z,996.30
2018-02-09T02:42:39.051Z,996.30
2018-02-09T02:43:39.088Z,996.25
2018-02-09T02:44:39.111Z,996.27
2018-02-09T02:45:39.130Z,996.24
2018-02-09T02:46:39.158Z,996.25
2018-02-09T02:47:39.183Z,996.26
2018-02-09T02:48:39.210Z,996.24
2018-02-09T02:49:39.240Z,996.23
2018-02-09T02:50:39.265Z,996.21
2018-02-09T02:51:39.292Z,996.20
2018-02-09T02:52:39.319Z,996.19
2018-02-09T02:53:39.341Z,996.19
2018-02-09T02:54:39.371Z,996.16
2018-02-09T02:55:39.400Z,996.14
2018-02-09T02:56:39.752Z,996.13
2018-02-09T02:57:39.450Z,996.13
2018-02-09T02:58:39.485Z,996.13
2018-02-09T02:59:39.503Z,996.17
2018-02-09T03:00:39.530Z,996.12
2018-02-09T03:01:39.558Z,996.10
2018-02-09T03:02:39.583Z,996.10
2018-02-09T03:03:39.611Z,996.10
2018-02-09T03:04:39.636Z,996.07
2018-02-09T03:05:39.664Z,996.04
2018-02-09T03:06:39.689Z,996.05
2018-02-09T03:07:39.716Z,996.02
2018-02-09T03:08:39.796Z,995.98
2018-02-09T03:09:39.773Z,996.00
2018-02-09T03:10:39.796Z,995.95
2018-02-09T03:11:39.822Z,995.93
2018-02-09T03:12:39.851Z,995.88
2018-02-09T03:13:39.885Z,995.88
2018-02-09T03:14:39.904Z,995.87
2018-02-09T03:15:39.949Z,995.86
2018-02-09T03:16:39.957Z,995.84
2018-02-09T03:17:39.991Z,995.83
2018-02-09T03:18:40.008Z,995.80
2018-02-09T03:19:40.041Z,995.79
2018-02-09T03:20:40.062Z,995.84
2018-02-09T03:21:40.088Z,995.81
2018-02-09T03:22:40.114Z,995.81
2018-02-09T03:23:40.146Z,995.82
2018-02-09T03:24:40.167Z,995.78
2018-02-09T03:25:40.246Z,995.80
2018-02-09T03:26:40.225Z,995.79
2018-02-09T03:27:40.246Z,995.79
2018-02-09T03:28:40.275Z,995.81
2018-02-09T03:29:40.303Z,995.77
2018-02-09T03:30:40.327Z,995.78
2018-02-09T03:31:40.353Z,995.77
2018-02-09T03:32:40.711Z,995.78
2018-02-09T03:33:40.406Z,995.82
2018-02-09T03:34:40.433Z,995.76
2018-02-09T03:35:40.459Z,995.76
2018-02-09T03:36:40.486Z,995.73
2018-02-09T03:37:40.512Z,995.76
2018-02-09T03:38:40.539Z,995.76
2018-02-09T03:39:40.570Z,995.75
2018-02-09T03:40:40.594Z,995.77
2018-02-09T03:41:40.617Z,995.74
2018-02-09T03:42:40.967Z,995.75
2018-02-09T03:43:40.671Z,995.74
2018-02-09T03:44:40.699Z,995.74
2018-02-09T03:45:40.725Z,995.77
2018-02-09T03:46:40.756Z,995.74
2018-02-09T03:47:40.778Z,995.77
2018-02-09T03:48:40.806Z,995.75
2018-02-09T03:49:40.859Z,995.74
2018-02-09T03:50:40.859Z,995.73
2018-02-09T03:51:40.887Z,995.75
2018-02-09T03:52:40.915Z,995.73
2018-02-09T03:53:40.939Z,995.73
2018-02-09T03:54:40.967Z,995.77
2018-02-09T03:55:41.046Z,995.75
2018-02-09T03:56:41.018Z,995.76
2018-02-09T03:57:41.056Z,995.75
2018-02-09T03:58:41.071Z,995.74
2018-02-09T03:59:41.098Z,995.76
2018-02-09T04:00:41.128Z,995.80
2018-02-09T04:01:41.261Z,995.84
2018-02-09T04:02:41.177Z,995.83
2018-02-09T04:03:41.203Z,995.88
2018-02-09T04:04:41.232Z,995.88
2018-02-09T04:05:41.258Z,995.87
2018-02-09T04:06:41.284Z,995.84
2018-02-09T04:07:41.312Z,995.78
2018-02-09T04:08:41.338Z,995.82
2018-02-09T04:09:41.365Z,995.80
2018-02-09T04:10:41.388Z,995.83
2018-02-09T04:11:41.454Z,995.79
2018-02-09T04:12:41.444Z,995.78
2018-02-09T04:13:41.470Z,995.79
2018-02-09T04:14:41.499Z,995.80
2018-02-09T04:15:41.522Z,995.82
2018-02-09T04:16:41.548Z,995.84
2018-02-09T04:17:41.576Z,995.85
2018-02-09T04:18:41.754Z,995.78
2018-02-09T04:19:41.631Z,995.81
2018-02-09T04:20:41.659Z,995.83
2018-02-09T04:21:41.680Z,995.80
2018-02-09T04:22:41.708Z,995.83
2018-02-09T04:23:41.746Z,995.79
2018-02-09T04:24:41.765Z,995.79
2018-02-09T04:25:41.809Z,995.75
2018-02-09T04:26:41.812Z,995.77
2018-02-09T04:27:41.840Z,995.73
2018-02-09T04:28:41.921Z,995.71
2018-02-09T04:29:41.893Z,995.75
2018-02-09T04:30:41.921Z,995.73
2018-02-09T04:31:41.951Z,995.73
2018-02-09T04:32:41.974Z,995.73
2018-02-09T04:33:42.002Z,995.76
2018-02-09T04:34:42.026Z,995.72
2018-02-09T04:35:42.376Z,995.72
2018-02-09T04:36:42.082Z,995.74
2018-02-09T04:37:42.156Z,995.73
2018-02-09T04:38:42.132Z,995.70
2018-02-09T04:39:42.163Z,995.67
2018-02-09T04:40:42.188Z,995.64
2018-02-09T04:41:42.213Z,995.65
2018-02-09T04:42:42.242Z,995.60
2018-02-09T04:43:42.270Z,995.59
2018-02-09T04:44:42.293Z,995.61
2018-02-09T04:45:42.370Z,995.58
2018-02-09T04:46:42.347Z,995.65
2018-02-09T04:47:42.378Z,995.60
2018-02-09T04:48:42.405Z,995.56
2018-02-09T04:49:42.425Z,995.57
2018-02-09T04:50:42.453Z,995.55
2018-02-09T04:51:42.479Z,995.60
2018-02-09T04:52:42.508Z,995.53
2018-02-09T04:53:42.533Z,995.55
2018-02-09T04:54:42.558Z,995.55
2018-02-09T04:55:42.587Z,995.56
2018-02-09T04:56:42.614Z,995.54
2018-02-09T04:57:42.644Z,995.55
2018-02-09T04:58:42.672Z,995.56
2018-02-09T04:59:42.895Z,995.57
2018-02-09T05:00:42.718Z,995.51
2018-02-09T05:01:42.744Z,995.53
2018-02-09T05:02:42.774Z,995.49
2018-02-09T05:03:42.797Z,995.50
2018-02-09T05:04:42.910Z,995.54
2018-02-09T05:05:42.850Z,995.51
2018-02-09T05:06:42.879Z,995.50
2018-02-09T05:07:42.905Z,995.51
2018-02-09T05:08:42.935Z,995.48
2018-02-09T05:09:42.959Z,995.49
2018-02-09T05:10:42.985Z,995.45
2018-02-09T05:11:43.010Z,995.46
2018-02-09T05:12:43.055Z,995.47
2018-02-09T05:13:43.066Z,995.45
2018-02-09T05:14:43.096Z,995.43
2018-02-09T05:15:43.118Z,995.41
2018-02-09T05:16:43.147Z,995.46
2018-02-09T05:17:43.172Z,995.46
2018-02-09T05:18:43.209Z,995.45
2018-02-09T05:19:43.227Z,995.47
2018-02-09T05:20:43.251Z,995.43
2018-02-09T05:21:43.662Z,995.45
2018-02-09T05:22:43.362Z,995.42
2018-02-09T05:23:43.334Z,995.42
2018-02-09T05:24:43.357Z,995.45
2018-02-09T05:25:43.388Z,995.42
2018-02-09T05:26:43.411Z,995.35
2018-02-09T05:27:43.438Z,995.35
2018-02-09T05:28:43.468Z,995.35
2018-02-09T05:29:43.491Z,995.40
2018-02-09T05:30:43.521Z,995.34
2018-02-09T05:31:43.682Z,995.35
2018-02-09T05:32:43.583Z,995.36
2018-02-09T05:33:43.597Z,995.36
2018-02-09T05:34:43.678Z,995.34
2018-02-09T05:35:43.657Z,995.35
2018-02-09T05:36:43.678Z,995.33
2018-02-09T05:37:43.706Z,995.37
2018-02-09T05:38:43.732Z,995.34
2018-02-09T05:39:43.760Z,995.34
2018-02-09T05:40:43.789Z,995.34
2018-02-09T05:41:44.015Z,995.32
2018-02-09T05:42:43.864Z,995.32
2018-02-09T05:43:43.879Z,995.33
2018-02-09T05:44:43.893Z,995.32
2018-02-09T05:45:43.917Z,995.32
2018-02-09T05:46:43.946Z,995.35
2018-02-09T05:47:43.971Z,995.30
2018-02-09T05:48:44.001Z,995.28
2018-02-09T05:49:44.024Z,995.28
2018-02-09T05:50:44.195Z,995.26
2018-02-09T05:51:44.080Z,995.29
2018-02-09T05:52:44.105Z,995.27
2018-02-09T05:53:44.130Z,995.27
2018-02-09T05:54:44.164Z,995.27
2018-02-09T05:55:44.185Z,995.27
2018-02-09T05:56:44.213Z,995.28
2018-02-09T05:57:44.241Z,995.28
2018-02-09T05:58:44.264Z,995.25
2018-02-09T05:59:44.291Z,995.29
2018-02-09T06:00:44.402Z,995.28
2018-02-09T06:01:44.343Z,995.25
2018-02-09T06:02:44.371Z,995.29
2018-02-09T06:03:44.403Z,995.27
2018-02-09T06:04:44.425Z,995.28
2018-02-09T06:05:44.461Z,995.29
2018-02-09T06:06:44.484Z,995.26
2018-02-09T06:07:44.505Z,995.27
2018-02-09T06:08:44.532Z,995.28
2018-02-09T06:09:44.568Z,995.22
2018-02-09T06:10:44.637Z,995.24
2018-02-09T06:11:44.614Z,995.22
2018-02-09T06:12:44.640Z,995.20
2018-02-09T06:13:44.666Z,995.18
2018-02-09T06:14:44.703Z,995.19
2018-02-09T06:15:44.725Z,995.20
2018-02-09T06:16:44.747Z,995.14
2018-02-09T06:17:44.777Z,995.16
2018-02-09T06:18:44.798Z,995.15
2018-02-09T06:19:44.824Z,995.08
2018-02-09T06:20:44.862Z,995.12
2018-02-09T06:21:44.876Z,995.08
2018-02-09T06:22:44.904Z,995.08
2018-02-09T06:23:44.930Z,995.17
2018-02-09T06:24:45.029Z,995.13
2018-02-09T06:25:44.991Z,995.16
2018-02-09T06:26:45.010Z,995.17
2018-02-09T06:27:45.038Z,995.19
2018-02-09T06:28:45.065Z,995.10
2018-02-09T06:29:45.095Z,995.11
2018-02-09T06:30:45.114Z,995.14
2018-02-09T06:31:45.145Z,995.11
2018-02-09T06:32:45.170Z,995.05
2018-02-09T06:33:45.195Z,995.10
2018-02-09T06:34:45.225Z,995.10
2018-02-09T06:35:45.248Z,995.11
2018-02-09T06:36:45.371Z,995.11
2018-02-09T06:37:45.301Z,995.08
2018-02-09T06:38:45.328Z,995.12
2018-02-09T06:39:45.357Z,995.07
2018-02-09T06:40:45.381Z,995.12
2018-02-09T06:41:45.409Z,995.10
2018-02-09T06:42:45.436Z,995.08
2018-02-09T06:43:45.463Z,995.08
2018-02-09T06:44:45.487Z,995.11
2018-02-09T06:45:45.517Z,995.11
2018-02-09T06:46:45.569Z,995.10
2018-02-09T06:47:45.567Z,995.08
2018-02-09T06:48:45.601Z,995.15
2018-02-09T06:49:45.620Z,995.16
2018-02-09T06:50:45.647Z,995.17
2018-02-09T06:51:45.673Z,995.16
2018-02-09T06:52:45.704Z,995.15
2018-02-09T06:53:45.797Z,995.16
2018-02-09T06:54:45.752Z,995.16
2018-02-09T06:55:45.779Z,995.14
2018-02-09T06:56:45.812Z,995.14
2018-02-09T06:57:45.834Z,995.16
2018-02-09T06:58:45.859Z,995.15
2018-02-09T06:59:45.890Z,995.15
2018-02-09T07:00:45.914Z,995.15
2018-02-09T07:01:45.940Z,995.15
2018-02-09T07:02:45.964Z,995.19
2018-02-09T07:03:46.046Z,995.13
2018-02-09T07:04:46.019Z,995.19
2018-02-09T07:05:46.044Z,995.15
2018-02-09T07:06:46.072Z,995.16
2018-02-09T07:07:46.101Z,995.15
2018-02-09T07:08:46.124Z,995.11
2018-02-09T07:09:46.154Z,995.15
2018-02-09T07:10:46.577Z,995.17
2018-02-09T07:11:46.205Z,995.14
2018-02-09T07:12:46.232Z,995.12
2018-02-09T07:13:46.263Z,995.11
2018-02-09T07:14:46.282Z,995.13
2018-02-09T07:15:46.310Z,995.16
2018-02-09T07:16:46.340Z,995.15
2018-02-09T07:17:46.362Z,995.07
2018-02-09T07:18:46.390Z,995.06
2018-02-09T07:19:46.420Z,995.11
2018-02-09T07:20:46.495Z,995.06
2018-02-09T07:21:46.472Z,995.10
2018-02-09T07:22:46.495Z,995.10
2018-02-09T07:23:46.524Z,995.09
2018-02-09T07:24:46.551Z,995.14
2018-02-09T07:25:46.583Z,995.07
2018-02-09T07:26:46.604Z,995.10
2018-02-09T07:27:46.641Z,995.12
2018-02-09T07:28:46.713Z,995.05
2018-02-09T07:29:46.683Z,995.07
2018-02-09T07:30:46.713Z,995.10
2018-02-09T07:31:46.739Z,995.11
2018-02-09T07:32:46.868Z,995.06
2018-02-09T07:33:46.794Z,995.06
2018-02-09T07:34:46.823Z,995.13
2018-02-09T07:35:46.845Z,995.05
2018-02-09T07:36:46.874Z,995.07
2018-02-09T07:37:46.905Z,995.07
2018-02-09T07:38:46.926Z,995.06
2018-02-09T07:39:46.951Z,995.00
2018-02-09T07:40:46.985Z,994.96
2018-02-09T07:41:47.005Z,995.01
2018-02-09T07:42:47.034Z,994.99
2018-02-09T07:43:47.068Z,995.02
2018-02-09T07:44:47.087Z,995.03
2018-02-09T07:45:47.111Z,994.99
2018-02-09T07:46:47.140Z,994.96
2018-02-09T07:47:47.165Z,995.01
2018-02-09T07:48:47.394Z,994.99
2018-02-09T07:49:47.270Z,994.98
2018-02-09T07:50:47.245Z,994.97
2018-02-09T07:51:47.274Z,994.98
2018-02-09T07:52:47.300Z,994.98
2018-02-09T07:53:47.326Z,994.95
2018-02-09T07:54:47.356Z,994.95
2018-02-09T07:55:47.380Z,994.93
2018-02-09T07:56:47.408Z,994.91
2018-02-09T07:57:47.435Z,994.96
2018-02-09T07:58:47.461Z,994.90
2018-02-09T07:59:47.692Z,994.94
2018-02-09T08:00:47.516Z,994.97
2018-02-09T08:01:47.541Z,994.97
2018-02-09T08:02:47.581Z,994.95
2018-02-09T08:03:47.596Z,994.95
2018-02-09T08:04:47.631Z,994.92
2018-02-09T08:05:47.657Z,994.95
2018-02-09T08:06:48.192Z,994.92
2018-02-09T08:07:47.759Z,994.94
2018-02-09T08:08:47.736Z,994.94
2018-02-09T08:09:47.773Z,994.95
2018-02-09T08:10:47.787Z,994.92
2018-02-09T08:11:47.820Z,994.90
2018-02-09T08:12:47.837Z,994.91
2018-02-09T08:13:47.928Z,994.91
2018-02-09T08:14:47.889Z,994.92
2018-02-09T08:15:47.922Z,994.96
2018-02-09T08:16:47.947Z,994.90
2018-02-09T08:17:47.977Z,994.93
2018-02-09T08:18:47.998Z,994.95
2018-02-09T08:19:48.027Z,994.92
2018-02-09T08:20:48.121Z,994.87
2018-02-09T08:21:48.088Z,994.91
2018-02-09T08:22:48.109Z,994.87
2018-02-09T08:23:48.139Z,994.93
2018-02-09T08:24:48.163Z,994.89
2018-02-09T08:25:48.201Z,994.86
2018-02-09T08:26:48.218Z,994.90
2018-02-09T08:27:48.242Z,994.88
2018-02-09T08:28:48.272Z,994.87
2018-02-09T08:29:48.296Z,994.88
2018-02-09T08:30:48.322Z,994.87
2018-02-09T08:31:48.350Z,994.84
2018-02-09T08:32:48.579Z,994.84
2018-02-09T08:33:48.407Z,994.82
2018-02-09T08:34:48.430Z,994.85
2018-02-09T08:35:48.463Z,994.85
2018-02-09T08:36:48.489Z,994.81
2018-02-09T08:37:48.511Z,994.83
2018-02-09T08:38:48.549Z,994.84
2018-02-09T08:39:48.566Z,994.88
2018-02-09T08:40:48.594Z,994.87
2018-02-09T08:41:48.621Z,994.84
2018-02-09T08:42:48.701Z,994.83
2018-02-09T08:43:48.674Z,994.83
2018-02-09T08:44:48.701Z,994.77
2018-02-09T08:45:48.726Z,994.77
2018-02-09T08:46:48.754Z,994.79
2018-02-09T08:47:48.781Z,994.80
2018-02-09T08:48:48.807Z,994.80
2018-02-09T08:49:48.894Z,994.77
2018-02-09T08:50:48.866Z,994.78
2018-02-09T08:51:48.892Z,994.74
2018-02-09T08:52:48.914Z,994.79
2018-02-09T08:53:48.956Z,994.78
2018-02-09T08:54:48.972Z,994.73
2018-02-09T08:55:49.024Z,994.79
2018-02-09T08:56:49.026Z,994.79
2018-02-09T08:57:49.053Z,994.76
2018-02-09T08:58:49.083Z,994.78
2018-02-09T08:59:49.148Z,994.76
2018-02-09T09:00:49.145Z,994.78
2018-02-09T09:01:49.172Z,994.77
2018-02-09T09:02:49.198Z,994.75
2018-02-09T09:03:49.213Z,994.70
2018-02-09T09:04:49.259Z,994.74
2018-02-09T09:05:49.267Z,994.74
2018-02-09T09:06:49.379Z,994.73
2018-02-09T09:07:49.325Z,994.68
2018-02-09T09:08:49.349Z,994.70
2018-02-09T09:09:49.374Z,994.75
2018-02-09T09:10:49.418Z,994.71
2018-02-09T09:11:49.431Z,994.73
2018-02-09T09:12:49.458Z,994.71
2018-02-09T09:13:49.486Z,994.73
2018-02-09T09:14:49.510Z,994.68
2018-02-09T09:15:49.540Z,994.71
2018-02-09T09:16:49.569Z,994.70
2018-02-09T09:17:49.590Z,994.66
2018-02-09T09:18:49.657Z,994.72
2018-02-09T09:19:49.648Z,994.66
2018-02-09T09:20:49.675Z,994.66
2018-02-09T09:21:49.700Z,994.62
2018-02-09T09:22:49.729Z,994.60
2018-02-09T09:23:49.757Z,994.62
2018-02-09T09:24:49.785Z,994.66
2018-02-09T09:25:49.808Z,994.60
2018-02-09T09:26:49.836Z,994.57
2018-02-09T09:27:49.863Z,994.58
2018-02-09T09:28:49.897Z,994.62
2018-02-09T09:29:49.916Z,994.57
2018-02-09T09:30:49.945Z,994.57
2018-02-09T09:31:49.972Z,994.54
2018-02-09T09:32:49.999Z,994.55
2018-02-09T09:33:50.029Z,994.54
2018-02-09T09:34:50.051Z,994.53
2018-02-09T09:35:50.193Z,994.53
2018-02-09T09:36:50.110Z,994.45
2018-02-09T09:37:50.143Z,994.48
2018-02-09T09:38:50.163Z,994.43
2018-02-09T09:39:50.191Z,994.49
2018-02-09T09:40:50.218Z,994.48
2018-02-09T09:41:50.250Z,994.50
2018-02-09T09:42:50.279Z,994.51
2018-02-09T09:43:50.298Z,994.50
2018-02-09T09:44:50.378Z,994.54
2018-02-09T09:45:50.354Z,994.52
2018-02-09T09:46:50.387Z,994.52
2018-02-09T09:47:50.410Z,994.52
2018-02-09T09:48:50.438Z,994.53
2018-02-09T09:49:50.469Z,994.52
2018-02-09T09:50:50.489Z,994.51
2018-02-09T09:51:50.530Z,994.47
2018-02-09T09:52:50.559Z,994.51
2018-02-09T09:53:50.574Z,994.47
2018-02-09T09:54:50.614Z,994.52
2018-02-09T09:55:50.630Z,994.55
2018-02-09T09:56:50.655Z,994.53
2018-02-09T09:57:50.683Z,994.51
2018-02-09T09:58:50.715Z,994.47
2018-02-09T09:59:51.062Z,994.49
2018-02-09T10:00:50.773Z,994.48
2018-02-09T10:01:50.802Z,994.45
2018-02-09T10:02:50.822Z,994.47
2018-02-09T10:03:50.850Z,994.48
2018-02-09T10:04:50.889Z,994.49
2018-02-09T10:05:50.904Z,994.45
2018-02-09T10:06:50.931Z,994.44
2018-02-09T10:07:50.961Z,994.48
2018-02-09T10:08:50.986Z,994.46
2018-02-09T10:09:51.019Z,994.45
2018-02-09T10:10:51.044Z,994.41
2018-02-09T10:11:51.273Z,994.38
2018-02-09T10:12:51.111Z,994.41
2018-02-09T10:13:51.125Z,994.42
2018-02-09T10:14:51.152Z,994.44
2018-02-09T10:15:51.197Z,994.44
2018-02-09T10:16:51.216Z,994.44
2018-02-09T10:17:51.235Z,994.44
2018-02-09T10:18:51.263Z,994.43
2018-02-09T10:19:51.295Z,994.43
2018-02-09T10:20:51.317Z,994.42
2018-02-09T10:21:51.402Z,994.38
2018-02-09T10:22:51.387Z,994.39
2018-02-09T10:23:51.427Z,994.37
2018-02-09T10:24:51.434Z,994.36
2018-02-09T10:25:51.461Z,994.36
2018-02-09T10:26:51.487Z,994.34
2018-02-09T10:27:51.514Z,994.38
2018-02-09T10:28:51.921Z,994.29
2018-02-09T10:29:51.569Z,994.25
2018-02-09T10:30:51.599Z,994.25
2018-02-09T10:31:51.672Z,994.22
2018-02-09T10:32:51.655Z,994.24
2018-02-09T10:33:51.697Z,994.22
2018-02-09T10:34:51.711Z,994.20
2018-02-09T10:35:51.740Z,994.14
2018-02-09T10:37:51.817Z,994.08
2018-02-09T10:38:51.826Z,994.08
2018-02-09T10:39:51.855Z,994.03
2018-02-09T10:40:51.881Z,994.00
2018-02-09T10:41:51.908Z,994.05
2018-02-09T10:42:51.938Z,994.02
2018-02-09T10:43:51.967Z,993.97
2018-02-09T10:44:51.996Z,993.98
2018-02-09T10:45:52.078Z,993.96
2018-02-09T10:46:52.049Z,993.97
2018-02-09T10:47:52.079Z,993.94
2018-02-09T10:48:52.107Z,993.93
2018-02-09T10:49:52.141Z,993.93
2018-02-09T10:50:52.167Z,993.90
2018-02-09T10:51:52.210Z,993.86
2018-02-09T10:52:52.221Z,993.85
2018-02-09T10:53:52.250Z,993.82
2018-02-09T10:54:52.279Z,993.84
2018-02-09T10:55:52.307Z,993.82
2018-02-09T10:56:52.334Z,993.79
2018-02-09T10:57:52.363Z,993.77
2018-02-09T10:58:52.393Z,993.77
2018-02-09T10:59:52.420Z,993.77
2018-02-09T11:00:52.451Z,993.71
2018-02-09T11:01:52.478Z,993.64
2018-02-09T11:02:52.508Z,993.67
2018-02-09T11:03:52.538Z,993.65
2018-02-09T11:04:52.658Z,993.59
2018-02-09T11:05:52.643Z,993.60
2018-02-09T11:06:52.621Z,993.57
2018-02-09T11:07:52.663Z,993.55
2018-02-09T11:08:52.678Z,993.54
2018-02-09T11:09:52.709Z,993.56
2018-02-09T11:10:52.738Z,993.58
2018-02-09T11:11:52.765Z,993.51
2018-02-09T11:12:52.795Z,993.48
2018-02-09T11:13:52.842Z,993.44
2018-02-09T11:14:52.851Z,993.49
2018-02-09T11:15:52.880Z,993.47
2018-02-09T11:16:52.924Z,993.48
2018-02-09T11:17:52.940Z,993.49
2018-02-09T11:18:52.984Z,993.46
2018-02-09T11:19:52.995Z,993.50
2018-02-09T11:20:53.025Z,993.46
2018-02-09T11:21:53.116Z,993.45
2018-02-09T11:22:53.082Z,993.46
2018-02-09T11:23:53.112Z,993.42
2018-02-09T11:24:53.148Z,993.48
2018-02-09T11:25:53.172Z,993.46
2018-02-09T11:26:53.200Z,993.45
2018-02-09T11:27:53.226Z,993.42
2018-02-09T11:28:53.254Z,993.38
2018-02-09T11:29:53.285Z,993.40
2018-02-09T11:30:53.313Z,993.41
2018-02-09T11:31:53.342Z,993.36
2018-02-09T11:32:53.398Z,993.39
2018-02-09T11:33:53.403Z,993.37
2018-02-09T11:34:53.483Z,993.36
2018-02-09T11:35:53.458Z,993.36
2018-02-09T11:36:53.488Z,993.36
2018-02-09T11:37:53.526Z,993.36
2018-02-09T11:38:53.597Z,993.38
2018-02-09T11:39:53.576Z,993.36
2018-02-09T11:40:53.602Z,993.37
2018-02-09T11:41:53.633Z,993.35
2018-02-09T11:42:53.663Z,993.36
2018-02-09T11:43:53.693Z,993.31
2018-02-09T11:44:53.723Z,993.32
2018-02-09T11:45:53.882Z,993.35
2018-02-09T11:46:53.834Z,993.30
2018-02-09T11:47:53.806Z,993.29
2018-02-09T11:48:53.840Z,993.29
2018-02-09T11:49:53.866Z,993.29
2018-02-09T11:50:53.894Z,993.26
2018-02-09T11:51:53.925Z,993.26
2018-02-09T11:52:53.953Z,993.26
2018-02-09T11:53:53.982Z,993.30
2018-02-09T11:54:54.015Z,993.27
2018-02-09T11:55:54.045Z,993.24
2018-02-09T11:56:54.074Z,993.26
2018-02-09T11:57:54.100Z,993.22
2018-02-09T11:58:54.129Z,993.17
2018-02-09T11:59:54.226Z,993.23
2018-02-09T12:00:54.189Z,993.20
2018-02-09T12:01:54.226Z,993.23
2018-02-09T12:02:54.245Z,993.23
2018-02-09T12:03:54.275Z,993.21
2018-02-09T12:04:54.307Z,993.20
2018-02-09T12:05:54.332Z,993.17
2018-02-09T12:06:54.361Z,993.15
2018-02-09T12:07:54.400Z,993.17
2018-02-09T12:08:54.419Z,993.13
2018-02-09T12:09:54.448Z,993.10
2018-02-09T12:10:54.475Z,993.11
2018-02-09T12:11:54.567Z,993.09
2018-02-09T12:12:54.537Z,993.10
2018-02-09T12:13:54.579Z,993.07
2018-02-09T12:14:54.658Z,993.09
2018-02-09T12:15:54.622Z,993.00
2018-02-09T12:16:54.652Z,993.03
2018-02-09T12:17:54.680Z,993.02
2018-02-09T12:18:54.710Z,992.98
2018-02-09T12:19:54.739Z,992.98
2018-02-09T12:20:54.769Z,992.96
2018-02-09T12:21:54.903Z,992.97
2018-02-09T12:22:54.838Z,992.96
2018-02-09T12:23:54.857Z,992.96
2018-02-09T12:24:54.887Z,992.95
2018-02-09T12:25:54.918Z,992.93
2018-02-09T12:26:54.943Z,992.90
2018-02-09T12:27:54.986Z,992.87
2018-02-09T12:28:55.004Z,992.87
2018-02-09T12:29:55.030Z,992.88